sensor_id;sensor_type;location;lat;lon;timestamp;P1;durP1;ratioP1;P2;durP2;ratioP2
47335;SDS011;33068;51.990;5.926;2023-08-06T00:02:22;21.50;;;14.18;;
47335;SDS011;33068;51.990;5.926;2023-08-06T00:04:49;24.60;;;17.70;;
47335;SDS011;33068;51.990;5.926;2023-08-06T00:07:15;20.52;;;15.38;;
47335;SDS011;33068;51.990;5.926;2023-08-06T00:09:42;21.65;;;14.48;;
47335;SDS011;33068;51.990;5.926;2023-08-06T00:12:08;19.95;;;14.18;;
47335;SDS011;33068;51.990;5.926;2023-08-06T00:14:35;19.02;;;14.50;;
47335;SDS011;33068;51.990;5.926;2023-08-06T00:17:02;20.77;;;14.25;;
47335;SDS011;33068;51.990;5.926;2023-08-06T00:19:30;19.52;;;14.20;;
47335;SDS011;33068;51.990;5.926;2023-08-06T00:21:57;16.48;;;13.43;;
47335;SDS011;33068;51.990;5.926;2023-08-06T00:24:23;17.98;;;13.77;;
47335;SDS011;33068;51.990;5.926;2023-08-06T00:26:50;21.95;;;14.73;;
47335;SDS011;33068;51.990;5.926;2023-08-06T00:29:16;17.50;;;14.27;;
47335;SDS011;33068;51.990;5.926;2023-08-06T00:31:43;21.83;;;15.73;;
47335;SDS011;33068;51.990;5.926;2023-08-06T00:34:10;22.00;;;14.75;;
47335;SDS011;33068;51.990;5.926;2023-08-06T00:36:37;22.67;;;15.18;;
47335;SDS011;33068;51.990;5.926;2023-08-06T00:39:03;22.75;;;16.65;;
47335;SDS011;33068;51.990;5.926;2023-08-06T00:41:30;21.30;;;14.80;;
47335;SDS011;33068;51.990;5.926;2023-08-06T00:43:56;20.02;;;14.23;;
47335;SDS011;33068;51.990;5.926;2023-08-06T00:46:23;20.33;;;15.07;;
47335;SDS011;33068;51.990;5.926;2023-08-06T00:48:49;20.88;;;16.58;;
47335;SDS011;33068;51.990;5.926;2023-08-06T00:51:17;22.60;;;17.35;;
47335;SDS011;33068;51.990;5.926;2023-08-06T00:53:45;20.73;;;16.10;;
47335;SDS011;33068;51.990;5.926;2023-08-06T00:56:12;26.33;;;17.42;;
47335;SDS011;33068;51.990;5.926;2023-08-06T00:58:39;25.85;;;16.45;;
47335;SDS011;33068;51.990;5.926;2023-08-06T01:01:06;25.90;;;17.42;;
47335;SDS011;33068;51.990;5.926;2023-08-06T01:06:23;26.27;;;18.58;;
47335;SDS011;33068;51.990;5.926;2023-08-06T01:09:06;28.98;;;19.63;;
47335;SDS011;33068;51.990;5.926;2023-08-06T01:11:44;32.20;;;19.90;;
47335;SDS011;33068;51.990;5.926;2023-08-06T01:14:20;29.70;;;20.63;;
47335;SDS011;33068;51.990;5.926;2023-08-06T01:16:54;35.92;;;22.00;;
47335;SDS011;33068;51.990;5.926;2023-08-06T01:19:21;35.75;;;19.63;;
47335;SDS011;33068;51.990;5.926;2023-08-06T01:21:49;30.75;;;20.00;;
47335;SDS011;33068;51.990;5.926;2023-08-06T01:24:16;32.10;;;19.67;;
47335;SDS011;33068;51.990;5.926;2023-08-06T01:26:44;35.28;;;21.02;;
47335;SDS011;33068;51.990;5.926;2023-08-06T01:29:17;30.80;;;19.38;;
47335;SDS011;33068;51.990;5.926;2023-08-06T01:31:53;34.08;;;20.27;;
47335;SDS011;33068;51.990;5.926;2023-08-06T01:34:24;31.75;;;20.55;;
47335;SDS011;33068;51.990;5.926;2023-08-06T01:36:54;38.75;;;22.30;;
47335;SDS011;33068;51.990;5.926;2023-08-06T01:39:21;39.88;;;24.77;;
47335;SDS011;33068;51.990;5.926;2023-08-06T01:41:47;43.72;;;25.52;;
47335;SDS011;33068;51.990;5.926;2023-08-06T01:44:13;45.38;;;25.52;;
47335;SDS011;33068;51.990;5.926;2023-08-06T01:46:40;40.08;;;23.83;;
47335;SDS011;33068;51.990;5.926;2023-08-06T01:49:06;38.83;;;24.00;;
47335;SDS011;33068;51.990;5.926;2023-08-06T01:51:33;37.47;;;22.85;;
47335;SDS011;33068;51.990;5.926;2023-08-06T01:54:00;54.72;;;28.67;;
47335;SDS011;33068;51.990;5.926;2023-08-06T01:56:27;51.65;;;27.17;;
47335;SDS011;33068;51.990;5.926;2023-08-06T01:58:53;54.42;;;30.33;;
47335;SDS011;33068;51.990;5.926;2023-08-06T02:01:21;57.00;;;30.15;;
47335;SDS011;33068;51.990;5.926;2023-08-06T02:03:48;59.75;;;32.30;;
47335;SDS011;33068;51.990;5.926;2023-08-06T02:06:14;63.88;;;33.70;;
47335;SDS011;33068;51.990;5.926;2023-08-06T02:08:40;70.10;;;34.92;;
47335;SDS011;33068;51.990;5.926;2023-08-06T02:11:07;59.45;;;33.88;;
47335;SDS011;33068;51.990;5.926;2023-08-06T02:13:34;64.30;;;35.50;;
47335;SDS011;33068;51.990;5.926;2023-08-06T02:16:00;70.10;;;36.70;;
47335;SDS011;33068;51.990;5.926;2023-08-06T02:18:27;61.22;;;36.25;;
47335;SDS011;33068;51.990;5.926;2023-08-06T02:20:56;64.65;;;36.45;;
47335;SDS011;33068;51.990;5.926;2023-08-06T02:23:22;72.03;;;39.22;;
47335;SDS011;33068;51.990;5.926;2023-08-06T02:25:56;65.95;;;37.85;;
47335;SDS011;33068;51.990;5.926;2023-08-06T02:28:23;65.82;;;36.75;;
47335;SDS011;33068;51.990;5.926;2023-08-06T02:30:50;62.08;;;36.75;;
47335;SDS011;33068;51.990;5.926;2023-08-06T02:33:16;56.90;;;34.58;;
47335;SDS011;33068;51.990;5.926;2023-08-06T02:35:43;67.28;;;35.15;;
47335;SDS011;33068;51.990;5.926;2023-08-06T02:38:09;64.95;;;36.40;;
47335;SDS011;33068;51.990;5.926;2023-08-06T02:40:36;59.55;;;35.88;;
47335;SDS011;33068;51.990;5.926;2023-08-06T02:43:02;65.70;;;35.78;;
47335;SDS011;33068;51.990;5.926;2023-08-06T02:45:29;62.60;;;33.80;;
47335;SDS011;33068;51.990;5.926;2023-08-06T02:47:56;51.10;;;31.17;;
47335;SDS011;33068;51.990;5.926;2023-08-06T02:50:22;57.00;;;29.27;;
47335;SDS011;33068;51.990;5.926;2023-08-06T02:52:49;49.75;;;28.02;;
47335;SDS011;33068;51.990;5.926;2023-08-06T02:55:15;45.92;;;26.77;;
47335;SDS011;33068;51.990;5.926;2023-08-06T02:57:44;48.55;;;26.55;;
47335;SDS011;33068;51.990;5.926;2023-08-06T03:00:11;48.60;;;26.40;;
47335;SDS011;33068;51.990;5.926;2023-08-06T03:02:39;51.95;;;26.80;;
47335;SDS011;33068;51.990;5.926;2023-08-06T03:05:32;45.47;;;24.85;;
47335;SDS011;33068;51.990;5.926;2023-08-06T03:07:58;38.97;;;22.08;;
47335;SDS011;33068;51.990;5.926;2023-08-06T03:10:28;41.60;;;22.52;;
47335;SDS011;33068;51.990;5.926;2023-08-06T03:12:57;35.38;;;20.42;;
47335;SDS011;33068;51.990;5.926;2023-08-06T03:15:23;34.35;;;19.63;;
47335;SDS011;33068;51.990;5.926;2023-08-06T03:17:52;32.42;;;19.02;;
47335;SDS011;33068;51.990;5.926;2023-08-06T03:20:21;36.50;;;19.20;;
47335;SDS011;33068;51.990;5.926;2023-08-06T03:22:47;33.35;;;19.40;;
47335;SDS011;33068;51.990;5.926;2023-08-06T03:25:15;27.88;;;18.05;;
47335;SDS011;33068;51.990;5.926;2023-08-06T03:27:46;35.78;;;20.25;;
47335;SDS011;33068;51.990;5.926;2023-08-06T03:30:15;37.95;;;20.25;;
47335;SDS011;33068;51.990;5.926;2023-08-06T03:32:42;39.85;;;20.52;;
47335;SDS011;33068;51.990;5.926;2023-08-06T03:35:09;38.80;;;21.98;;
47335;SDS011;33068;51.990;5.926;2023-08-06T03:37:36;29.38;;;18.95;;
47335;SDS011;33068;51.990;5.926;2023-08-06T03:40:02;42.63;;;21.75;;
47335;SDS011;33068;51.990;5.926;2023-08-06T03:42:31;37.25;;;20.80;;
47335;SDS011;33068;51.990;5.926;2023-08-06T03:44:59;35.60;;;20.45;;
47335;SDS011;33068;51.990;5.926;2023-08-06T03:47:25;38.28;;;19.75;;
47335;SDS011;33068;51.990;5.926;2023-08-06T03:49:52;38.00;;;20.90;;
47335;SDS011;33068;51.990;5.926;2023-08-06T03:52:21;40.17;;;21.85;;
47335;SDS011;33068;51.990;5.926;2023-08-06T03:54:47;39.08;;;21.02;;
47335;SDS011;33068;51.990;5.926;2023-08-06T03:57:13;42.30;;;23.73;;
47335;SDS011;33068;51.990;5.926;2023-08-06T03:59:41;36.97;;;22.40;;
47335;SDS011;33068;51.990;5.926;2023-08-06T04:02:07;39.83;;;22.30;;
47335;SDS011;33068;51.990;5.926;2023-08-06T04:04:33;36.45;;;22.17;;
47335;SDS011;33068;51.990;5.926;2023-08-06T04:07:00;39.25;;;21.85;;
47335;SDS011;33068;51.990;5.926;2023-08-06T04:11:54;44.30;;;23.02;;
47335;SDS011;33068;51.990;5.926;2023-08-06T04:14:21;38.35;;;22.52;;
47335;SDS011;33068;51.990;5.926;2023-08-06T04:16:48;50.08;;;24.95;;
47335;SDS011;33068;51.990;5.926;2023-08-06T04:19:15;48.17;;;26.27;;
47335;SDS011;33068;51.990;5.926;2023-08-06T04:21:41;43.67;;;23.63;;
47335;SDS011;33068;51.990;5.926;2023-08-06T04:24:09;40.63;;;23.60;;
47335;SDS011;33068;51.990;5.926;2023-08-06T04:26:36;40.65;;;22.77;;
47335;SDS011;33068;51.990;5.926;2023-08-06T04:29:03;50.55;;;26.02;;
47335;SDS011;33068;51.990;5.926;2023-08-06T04:31:31;45.25;;;24.50;;
47335;SDS011;33068;51.990;5.926;2023-08-06T04:33:57;54.22;;;26.52;;
47335;SDS011;33068;51.990;5.926;2023-08-06T04:36:24;44.03;;;25.85;;
47335;SDS011;33068;51.990;5.926;2023-08-06T04:38:50;57.15;;;28.33;;
47335;SDS011;33068;51.990;5.926;2023-08-06T04:41:17;47.22;;;27.88;;
47335;SDS011;33068;51.990;5.926;2023-08-06T04:43:44;48.28;;;28.08;;
47335;SDS011;33068;51.990;5.926;2023-08-06T04:46:11;50.60;;;28.08;;
47335;SDS011;33068;51.990;5.926;2023-08-06T04:48:37;47.28;;;26.45;;
47335;SDS011;33068;51.990;5.926;2023-08-06T04:51:04;50.70;;;28.27;;
47335;SDS011;33068;51.990;5.926;2023-08-06T04:53:30;50.28;;;28.00;;
47335;SDS011;33068;51.990;5.926;2023-08-06T04:55:57;56.03;;;29.75;;
47335;SDS011;33068;51.990;5.926;2023-08-06T04:58:23;51.08;;;29.05;;
47335;SDS011;33068;51.990;5.926;2023-08-06T05:00:50;51.22;;;25.70;;
47335;SDS011;33068;51.990;5.926;2023-08-06T05:03:16;48.45;;;29.38;;
47335;SDS011;33068;51.990;5.926;2023-08-06T05:05:43;46.35;;;25.95;;
47335;SDS011;33068;51.990;5.926;2023-08-06T05:08:13;48.88;;;27.10;;
47335;SDS011;33068;51.990;5.926;2023-08-06T05:10:42;42.92;;;24.75;;
47335;SDS011;33068;51.990;5.926;2023-08-06T05:13:08;41.95;;;26.05;;
47335;SDS011;33068;51.990;5.926;2023-08-06T05:15:35;43.80;;;25.23;;
47335;SDS011;33068;51.990;5.926;2023-08-06T05:18:02;46.58;;;26.88;;
47335;SDS011;33068;51.990;5.926;2023-08-06T05:20:28;42.58;;;26.90;;
47335;SDS011;33068;51.990;5.926;2023-08-06T05:22:55;46.40;;;26.75;;
47335;SDS011;33068;51.990;5.926;2023-08-06T05:25:21;45.47;;;25.65;;
47335;SDS011;33068;51.990;5.926;2023-08-06T05:27:47;43.33;;;26.30;;
47335;SDS011;33068;51.990;5.926;2023-08-06T05:30:14;41.05;;;26.50;;
47335;SDS011;33068;51.990;5.926;2023-08-06T05:32:40;44.38;;;26.38;;
47335;SDS011;33068;51.990;5.926;2023-08-06T05:35:08;47.60;;;27.45;;
47335;SDS011;33068;51.990;5.926;2023-08-06T05:37:34;43.08;;;25.42;;
47335;SDS011;33068;51.990;5.926;2023-08-06T05:40:00;42.20;;;26.15;;
47335;SDS011;33068;51.990;5.926;2023-08-06T05:42:27;45.08;;;27.00;;
47335;SDS011;33068;51.990;5.926;2023-08-06T05:44:54;46.28;;;28.10;;
47335;SDS011;33068;51.990;5.926;2023-08-06T05:47:20;42.60;;;26.27;;
47335;SDS011;33068;51.990;5.926;2023-08-06T05:49:46;47.97;;;26.77;;
47335;SDS011;33068;51.990;5.926;2023-08-06T05:52:13;44.47;;;26.90;;
47335;SDS011;33068;51.990;5.926;2023-08-06T05:54:40;49.30;;;29.27;;
47335;SDS011;33068;51.990;5.926;2023-08-06T05:57:06;37.95;;;26.52;;
47335;SDS011;33068;51.990;5.926;2023-08-06T05:59:33;42.28;;;27.42;;
47335;SDS011;33068;51.990;5.926;2023-08-06T06:01:59;41.42;;;27.17;;
47335;SDS011;33068;51.990;5.926;2023-08-06T06:04:25;43.13;;;28.05;;
47335;SDS011;33068;51.990;5.926;2023-08-06T06:06:53;42.20;;;26.98;;
47335;SDS011;33068;51.990;5.926;2023-08-06T06:09:20;46.72;;;27.85;;
47335;SDS011;33068;51.990;5.926;2023-08-06T06:11:47;40.92;;;26.10;;
47335;SDS011;33068;51.990;5.926;2023-08-06T06:14:15;37.67;;;24.30;;
47335;SDS011;33068;51.990;5.926;2023-08-06T06:16:41;39.55;;;25.45;;
47335;SDS011;33068;51.990;5.926;2023-08-06T06:19:08;36.60;;;25.15;;
47335;SDS011;33068;51.990;5.926;2023-08-06T06:21:34;35.65;;;22.60;;
47335;SDS011;33068;51.990;5.926;2023-08-06T06:24:00;38.83;;;24.50;;
47335;SDS011;33068;51.990;5.926;2023-08-06T06:26:28;42.35;;;26.02;;
47335;SDS011;33068;51.990;5.926;2023-08-06T06:28:55;42.47;;;25.25;;
47335;SDS011;33068;51.990;5.926;2023-08-06T06:31:22;36.55;;;24.50;;
47335;SDS011;33068;51.990;5.926;2023-08-06T06:33:48;35.00;;;23.52;;
47335;SDS011;33068;51.990;5.926;2023-08-06T06:36:15;35.90;;;24.20;;
47335;SDS011;33068;51.990;5.926;2023-08-06T06:38:42;34.75;;;23.08;;
47335;SDS011;33068;51.990;5.926;2023-08-06T06:41:08;32.22;;;21.98;;
47335;SDS011;33068;51.990;5.926;2023-08-06T06:43:35;33.97;;;23.50;;
47335;SDS011;33068;51.990;5.926;2023-08-06T06:46:03;34.58;;;22.60;;
47335;SDS011;33068;51.990;5.926;2023-08-06T06:48:30;30.33;;;21.70;;
47335;SDS011;33068;51.990;5.926;2023-08-06T06:50:58;28.58;;;21.08;;
47335;SDS011;33068;51.990;5.926;2023-08-06T06:53:24;28.73;;;21.13;;
47335;SDS011;33068;51.990;5.926;2023-08-06T06:55:52;28.65;;;20.77;;
47335;SDS011;33068;51.990;5.926;2023-08-06T06:58:19;26.77;;;19.55;;
47335;SDS011;33068;51.990;5.926;2023-08-06T07:00:46;29.27;;;19.05;;
47335;SDS011;33068;51.990;5.926;2023-08-06T07:03:13;29.60;;;21.95;;
47335;SDS011;33068;51.990;5.926;2023-08-06T07:05:39;29.00;;;20.48;;
47335;SDS011;33068;51.990;5.926;2023-08-06T07:08:06;31.40;;;21.75;;
47335;SDS011;33068;51.990;5.926;2023-08-06T07:10:32;28.35;;;21.55;;
47335;SDS011;33068;51.990;5.926;2023-08-06T07:12:59;27.92;;;21.08;;
47335;SDS011;33068;51.990;5.926;2023-08-06T07:15:25;30.95;;;21.52;;
47335;SDS011;33068;51.990;5.926;2023-08-06T07:17:52;35.63;;;23.00;;
47335;SDS011;33068;51.990;5.926;2023-08-06T07:20:19;32.20;;;21.90;;
47335;SDS011;33068;51.990;5.926;2023-08-06T07:22:45;32.10;;;21.90;;
47335;SDS011;33068;51.990;5.926;2023-08-06T07:25:12;29.38;;;19.20;;
47335;SDS011;33068;51.990;5.926;2023-08-06T07:27:38;27.85;;;19.98;;
47335;SDS011;33068;51.990;5.926;2023-08-06T07:30:05;24.45;;;18.60;;
47335;SDS011;33068;51.990;5.926;2023-08-06T07:32:36;27.15;;;19.05;;
47335;SDS011;33068;51.990;5.926;2023-08-06T07:35:04;26.77;;;18.92;;
47335;SDS011;33068;51.990;5.926;2023-08-06T07:37:34;23.33;;;18.15;;
47335;SDS011;33068;51.990;5.926;2023-08-06T07:40:10;19.42;;;16.27;;
47335;SDS011;33068;51.990;5.926;2023-08-06T07:42:37;21.65;;;17.15;;
47335;SDS011;33068;51.990;5.926;2023-08-06T07:45:03;23.88;;;16.75;;
47335;SDS011;33068;51.990;5.926;2023-08-06T07:47:30;21.25;;;16.65;;
47335;SDS011;33068;51.990;5.926;2023-08-06T07:49:57;23.42;;;17.08;;
47335;SDS011;33068;51.990;5.926;2023-08-06T07:52:25;22.58;;;17.42;;
47335;SDS011;33068;51.990;5.926;2023-08-06T07:54:53;23.13;;;16.90;;
47335;SDS011;33068;51.990;5.926;2023-08-06T07:57:19;19.30;;;16.73;;
47335;SDS011;33068;51.990;5.926;2023-08-06T07:59:46;22.98;;;16.80;;
47335;SDS011;33068;51.990;5.926;2023-08-06T08:02:12;19.35;;;15.98;;
47335;SDS011;33068;51.990;5.926;2023-08-06T08:04:39;22.30;;;16.67;;
47335;SDS011;33068;51.990;5.926;2023-08-06T08:07:09;20.92;;;16.65;;
47335;SDS011;33068;51.990;5.926;2023-08-06T08:09:38;18.63;;;15.23;;
47335;SDS011;33068;51.990;5.926;2023-08-06T08:12:05;19.52;;;16.50;;
47335;SDS011;33068;51.990;5.926;2023-08-06T08:14:32;25.13;;;17.83;;
47335;SDS011;33068;51.990;5.926;2023-08-06T08:17:06;37.10;;;22.38;;
47335;SDS011;33068;51.990;5.926;2023-08-06T08:19:39;23.92;;;17.33;;
47335;SDS011;33068;51.990;5.926;2023-08-06T08:22:07;18.10;;;16.13;;
47335;SDS011;33068;51.990;5.926;2023-08-06T08:24:33;18.48;;;16.42;;
47335;SDS011;33068;51.990;5.926;2023-08-06T08:27:00;17.88;;;15.38;;
47335;SDS011;33068;51.990;5.926;2023-08-06T08:29:27;18.42;;;16.02;;
47335;SDS011;33068;51.990;5.926;2023-08-06T08:31:54;18.15;;;16.08;;
47335;SDS011;33068;51.990;5.926;2023-08-06T08:34:20;21.08;;;15.50;;
47335;SDS011;33068;51.990;5.926;2023-08-06T08:36:47;15.85;;;14.23;;
47335;SDS011;33068;51.990;5.926;2023-08-06T08:39:15;16.85;;;14.60;;
47335;SDS011;33068;51.990;5.926;2023-08-06T08:41:41;16.05;;;14.35;;
47335;SDS011;33068;51.990;5.926;2023-08-06T08:44:09;16.35;;;14.38;;
47335;SDS011;33068;51.990;5.926;2023-08-06T08:46:36;15.65;;;13.63;;
47335;SDS011;33068;51.990;5.926;2023-08-06T08:49:04;17.85;;;14.63;;
47335;SDS011;33068;51.990;5.926;2023-08-06T08:51:32;19.25;;;13.65;;
47335;SDS011;33068;51.990;5.926;2023-08-06T08:53:59;15.98;;;13.43;;
47335;SDS011;33068;51.990;5.926;2023-08-06T08:56:28;15.93;;;12.32;;
47335;SDS011;33068;51.990;5.926;2023-08-06T08:58:55;13.00;;;10.30;;
47335;SDS011;33068;51.990;5.926;2023-08-06T09:01:22;14.23;;;10.98;;
47335;SDS011;33068;51.990;5.926;2023-08-06T09:03:51;15.25;;;11.77;;
47335;SDS011;33068;51.990;5.926;2023-08-06T09:06:19;10.77;;;9.68;;
47335;SDS011;33068;51.990;5.926;2023-08-06T09:08:47;10.75;;;9.13;;
47335;SDS011;33068;51.990;5.926;2023-08-06T09:11:20;14.95;;;10.88;;
47335;SDS011;33068;51.990;5.926;2023-08-06T09:13:47;15.05;;;10.07;;
47335;SDS011;33068;51.990;5.926;2023-08-06T09:16:13;9.98;;;9.07;;
47335;SDS011;33068;51.990;5.926;2023-08-06T09:18:40;11.18;;;9.25;;
47335;SDS011;33068;51.990;5.926;2023-08-06T09:21:07;9.52;;;8.55;;
47335;SDS011;33068;51.990;5.926;2023-08-06T09:23:40;9.73;;;8.73;;
47335;SDS011;33068;51.990;5.926;2023-08-06T09:26:07;12.23;;;8.25;;
47335;SDS011;33068;51.990;5.926;2023-08-06T09:28:37;13.48;;;9.10;;
47335;SDS011;33068;51.990;5.926;2023-08-06T09:31:04;9.85;;;8.45;;
47335;SDS011;33068;51.990;5.926;2023-08-06T09:33:31;9.52;;;8.02;;
47335;SDS011;33068;51.990;5.926;2023-08-06T09:35:58;12.68;;;8.43;;
47335;SDS011;33068;51.990;5.926;2023-08-06T09:38:37;9.13;;;7.63;;
47335;SDS011;33068;51.990;5.926;2023-08-06T09:41:04;10.40;;;9.20;;
47335;SDS011;33068;51.990;5.926;2023-08-06T09:43:34;9.75;;;8.55;;
47335;SDS011;33068;51.990;5.926;2023-08-06T09:46:10;10.15;;;9.02;;
47335;SDS011;33068;51.990;5.926;2023-08-06T09:48:38;12.05;;;8.93;;
47335;SDS011;33068;51.990;5.926;2023-08-06T09:51:06;11.95;;;8.20;;
47335;SDS011;33068;51.990;5.926;2023-08-06T09:53:34;12.65;;;9.20;;
47335;SDS011;33068;51.990;5.926;2023-08-06T09:56:03;11.02;;;9.82;;
47335;SDS011;33068;51.990;5.926;2023-08-06T09:58:29;11.10;;;9.48;;
47335;SDS011;33068;51.990;5.926;2023-08-06T10:00:57;12.27;;;10.85;;
47335;SDS011;33068;51.990;5.926;2023-08-06T10:03:24;13.95;;;12.15;;
47335;SDS011;33068;51.990;5.926;2023-08-06T10:05:53;15.05;;;12.27;;
47335;SDS011;33068;51.990;5.926;2023-08-06T10:08:22;13.15;;;11.75;;
47335;SDS011;33068;51.990;5.926;2023-08-06T10:10:49;13.27;;;11.82;;
47335;SDS011;33068;51.990;5.926;2023-08-06T10:13:15;17.77;;;13.18;;
47335;SDS011;33068;51.990;5.926;2023-08-06T10:15:44;17.63;;;14.25;;
47335;SDS011;33068;51.990;5.926;2023-08-06T10:18:11;18.15;;;13.55;;
47335;SDS011;33068;51.990;5.926;2023-08-06T10:20:43;18.58;;;14.35;;
47335;SDS011;33068;51.990;5.926;2023-08-06T10:23:13;19.45;;;15.02;;
47335;SDS011;33068;51.990;5.926;2023-08-06T10:25:41;33.55;;;20.98;;
47335;SDS011;33068;51.990;5.926;2023-08-06T10:28:08;31.20;;;21.92;;
47335;SDS011;33068;51.990;5.926;2023-08-06T10:30:40;38.70;;;26.38;;
47335;SDS011;33068;51.990;5.926;2023-08-06T10:33:08;32.25;;;24.85;;
47335;SDS011;33068;51.990;5.926;2023-08-06T10:35:35;35.25;;;25.63;;
47335;SDS011;33068;51.990;5.926;2023-08-06T10:38:05;37.83;;;26.92;;
47335;SDS011;33068;51.990;5.926;2023-08-06T10:40:35;27.35;;;19.95;;
47335;SDS011;33068;51.990;5.926;2023-08-06T10:43:04;10.90;;;8.55;;
47335;SDS011;33068;51.990;5.926;2023-08-06T10:45:36;7.75;;;5.38;;
47335;SDS011;33068;51.990;5.926;2023-08-06T10:48:06;3.90;;;3.42;;
47335;SDS011;33068;51.990;5.926;2023-08-06T10:50:32;4.65;;;2.88;;
47335;SDS011;33068;51.990;5.926;2023-08-06T10:53:03;1.40;;;1.30;;
47335;SDS011;33068;51.990;5.926;2023-08-06T10:55:31;2.15;;;1.40;;
47335;SDS011;33068;51.990;5.926;2023-08-06T10:57:58;2.13;;;1.13;;
47335;SDS011;33068;51.990;5.926;2023-08-06T11:00:25;2.25;;;1.25;;
47335;SDS011;33068;51.990;5.926;2023-08-06T11:02:53;1.95;;;1.15;;
47335;SDS011;33068;51.990;5.926;2023-08-06T11:05:21;1.50;;;1.17;;
47335;SDS011;33068;51.990;5.926;2023-08-06T11:07:48;3.25;;;1.35;;
47335;SDS011;33068;51.990;5.926;2023-08-06T11:10:16;1.95;;;1.30;;
47335;SDS011;33068;51.990;5.926;2023-08-06T11:12:44;2.03;;;1.60;;
47335;SDS011;33068;51.990;5.926;2023-08-06T11:15:11;1.95;;;1.55;;
47335;SDS011;33068;51.990;5.926;2023-08-06T11:17:42;3.30;;;2.35;;
47335;SDS011;33068;51.990;5.926;2023-08-06T11:20:09;6.75;;;2.08;;
47335;SDS011;33068;51.990;5.926;2023-08-06T11:22:36;1.80;;;1.70;;
47335;SDS011;33068;51.990;5.926;2023-08-06T11:25:04;3.10;;;1.83;;
47335;SDS011;33068;51.990;5.926;2023-08-06T11:27:32;3.30;;;2.10;;
47335;SDS011;33068;51.990;5.926;2023-08-06T11:29:59;2.67;;;1.70;;
47335;SDS011;33068;51.990;5.926;2023-08-06T11:32:25;2.28;;;2.00;;
47335;SDS011;33068;51.990;5.926;2023-08-06T11:34:54;2.55;;;2.28;;
47335;SDS011;33068;51.990;5.926;2023-08-06T11:37:21;5.97;;;2.50;;
47335;SDS011;33068;51.990;5.926;2023-08-06T11:39:49;5.93;;;3.90;;
47335;SDS011;33068;51.990;5.926;2023-08-06T11:42:15;3.67;;;3.28;;
47335;SDS011;33068;51.990;5.926;2023-08-06T11:44:42;7.25;;;4.63;;
47335;SDS011;33068;51.990;5.926;2023-08-06T11:47:14;7.93;;;4.18;;
47335;SDS011;33068;51.990;5.926;2023-08-06T11:49:42;5.88;;;4.57;;
47335;SDS011;33068;51.990;5.926;2023-08-06T11:52:20;5.05;;;4.20;;
47335;SDS011;33068;51.990;5.926;2023-08-06T11:57:28;5.43;;;4.07;;
47335;SDS011;33068;51.990;5.926;2023-08-06T11:59:58;9.55;;;7.93;;
47335;SDS011;33068;51.990;5.926;2023-08-06T12:02:38;5.03;;;4.30;;
47335;SDS011;33068;51.990;5.926;2023-08-06T12:05:10;6.15;;;3.83;;
47335;SDS011;33068;51.990;5.926;2023-08-06T12:07:38;7.55;;;4.22;;
47335;SDS011;33068;51.990;5.926;2023-08-06T12:10:06;6.85;;;4.07;;
47335;SDS011;33068;51.990;5.926;2023-08-06T12:12:33;10.13;;;5.18;;
47335;SDS011;33068;51.990;5.926;2023-08-06T12:15:00;5.53;;;4.50;;
47335;SDS011;33068;51.990;5.926;2023-08-06T12:18:11;6.78;;;5.18;;
47335;SDS011;33068;51.990;5.926;2023-08-06T12:20:26;10.25;;;6.38;;
47335;SDS011;33068;51.990;5.926;2023-08-06T12:22:54;14.90;;;8.18;;
47335;SDS011;33068;51.990;5.926;2023-08-06T12:25:21;14.02;;;7.32;;
47335;SDS011;33068;51.990;5.926;2023-08-06T12:27:48;9.63;;;5.65;;
47335;SDS011;33068;51.990;5.926;2023-08-06T12:30:19;10.02;;;6.00;;
47335;SDS011;33068;51.990;5.926;2023-08-06T12:32:46;9.15;;;5.93;;
47335;SDS011;33068;51.990;5.926;2023-08-06T12:35:12;9.60;;;6.55;;
47335;SDS011;33068;51.990;5.926;2023-08-06T12:37:39;11.15;;;6.13;;
47335;SDS011;33068;51.990;5.926;2023-08-06T12:40:08;10.20;;;6.38;;
47335;SDS011;33068;51.990;5.926;2023-08-06T12:42:35;13.13;;;6.85;;
47335;SDS011;33068;51.990;5.926;2023-08-06T12:45:01;7.72;;;5.75;;
47335;SDS011;33068;51.990;5.926;2023-08-06T12:47:28;8.27;;;6.65;;
47335;SDS011;33068;51.990;5.926;2023-08-06T12:49:55;10.70;;;6.05;;
47335;SDS011;33068;51.990;5.926;2023-08-06T12:52:21;10.02;;;6.78;;
47335;SDS011;33068;51.990;5.926;2023-08-06T12:54:47;15.18;;;7.85;;
47335;SDS011;33068;51.990;5.926;2023-08-06T12:57:14;9.95;;;6.30;;
47335;SDS011;33068;51.990;5.926;2023-08-06T12:59:42;14.13;;;6.60;;
47335;SDS011;33068;51.990;5.926;2023-08-06T13:02:10;10.95;;;5.35;;
47335;SDS011;33068;51.990;5.926;2023-08-06T13:04:37;11.25;;;5.60;;
47335;SDS011;33068;51.990;5.926;2023-08-06T13:07:03;15.13;;;8.10;;
47335;SDS011;33068;51.990;5.926;2023-08-06T13:09:31;11.98;;;6.45;;
47335;SDS011;33068;51.990;5.926;2023-08-06T13:12:01;10.98;;;6.95;;
47335;SDS011;33068;51.990;5.926;2023-08-06T13:14:32;15.95;;;6.72;;
47335;SDS011;33068;51.990;5.926;2023-08-06T13:16:58;14.02;;;7.32;;
47335;SDS011;33068;51.990;5.926;2023-08-06T13:19:25;13.57;;;5.82;;
47335;SDS011;33068;51.990;5.926;2023-08-06T13:21:58;13.57;;;6.55;;
47335;SDS011;33068;51.990;5.926;2023-08-06T13:24:27;15.85;;;7.40;;
47335;SDS011;33068;51.990;5.926;2023-08-06T13:26:56;15.00;;;7.35;;
47335;SDS011;33068;51.990;5.926;2023-08-06T13:29:26;18.17;;;8.52;;
47335;SDS011;33068;51.990;5.926;2023-08-06T13:31:56;15.55;;;7.40;;
47335;SDS011;33068;51.990;5.926;2023-08-06T13:34:28;14.35;;;7.47;;
47335;SDS011;33068;51.990;5.926;2023-08-06T13:37:18;22.42;;;9.32;;
47335;SDS011;33068;51.990;5.926;2023-08-06T13:39:49;19.05;;;8.60;;
47335;SDS011;33068;51.990;5.926;2023-08-06T13:42:15;17.80;;;8.07;;
47335;SDS011;33068;51.990;5.926;2023-08-06T13:44:47;12.63;;;8.00;;
47335;SDS011;33068;51.990;5.926;2023-08-06T13:47:16;11.50;;;7.40;;
47335;SDS011;33068;51.990;5.926;2023-08-06T13:49:43;13.68;;;7.88;;
47335;SDS011;33068;51.990;5.926;2023-08-06T13:52:10;19.15;;;8.88;;
47335;SDS011;33068;51.990;5.926;2023-08-06T13:54:37;10.82;;;6.25;;
47335;SDS011;33068;51.990;5.926;2023-08-06T13:57:06;14.63;;;8.02;;
47335;SDS011;33068;51.990;5.926;2023-08-06T13:59:32;12.48;;;7.28;;
47335;SDS011;33068;51.990;5.926;2023-08-06T14:01:59;12.45;;;7.05;;
47335;SDS011;33068;51.990;5.926;2023-08-06T14:04:36;13.20;;;7.43;;
47335;SDS011;33068;51.990;5.926;2023-08-06T14:07:03;9.63;;;6.63;;
47335;SDS011;33068;51.990;5.926;2023-08-06T14:09:30;11.55;;;6.75;;
47335;SDS011;33068;51.990;5.926;2023-08-06T14:11:57;13.63;;;8.32;;
47335;SDS011;33068;51.990;5.926;2023-08-06T14:14:24;15.32;;;7.32;;
47335;SDS011;33068;51.990;5.926;2023-08-06T14:16:52;13.68;;;8.00;;
47335;SDS011;33068;51.990;5.926;2023-08-06T14:19:19;9.48;;;6.07;;
47335;SDS011;33068;51.990;5.926;2023-08-06T14:21:51;15.77;;;8.65;;
47335;SDS011;33068;51.990;5.926;2023-08-06T14:24:19;23.38;;;11.00;;
47335;SDS011;33068;51.990;5.926;2023-08-06T14:26:46;11.55;;;8.25;;
47335;SDS011;33068;51.990;5.926;2023-08-06T14:29:13;18.63;;;11.60;;
47335;SDS011;33068;51.990;5.926;2023-08-06T14:31:40;25.73;;;10.60;;
47335;SDS011;33068;51.990;5.926;2023-08-06T14:34:14;14.05;;;8.82;;
47335;SDS011;33068;51.990;5.926;2023-08-06T14:36:56;15.45;;;8.80;;
47335;SDS011;33068;51.990;5.926;2023-08-06T14:41:55;11.63;;;8.68;;
47335;SDS011;33068;51.990;5.926;2023-08-06T14:44:30;14.18;;;8.85;;